KLAA/LAA METAR and TAF weather

Enter ICAO airport designator
Station Type Date Time Source
KLAA METAR 2021/05/15 17:05 UTC NOAA

KLAA 151705Z AUTO 15008KT 10SM OVC035 17/12 A3001


Station Type Date Time Source
KLAA Decoded METAR 2021/05/15 17:05 UTC NOAA

LAMAR MUNICIPAL AIRPORT, CO, United States (KLAA) 38-04N 102-41W 1119M
May 15, 2021 - 01:05 PM EDT / 2021.05.15 1705 UTC
Wind: from the SSE (150 degrees) at 9 MPH (8 KT):0
Visibility: 10 mile(s):0
Sky conditions: overcast
Temperature: 62 F (17 C)
Dew Point: 53 F (12 C)
Relative Humidity: 72%
Pressure (altimeter): 30.01 in. Hg (1016 hPa)
ob: KLAA 151705Z AUTO 15008KT 10SM OVC035 17/12 A3001
cycle: 17

Station Type Date Time Source
KLAA TAF UTC NOAA

Error!

Example: see airport list